sensor_id;sensor_type;location;lat;lon;timestamp;P1;durP1;ratioP1;P2;durP2;ratioP2
3841;SDS011;1936;47.074;15.336;2023-09-08T00:02:04;8.57;;;7.73;;
3841;SDS011;1936;47.074;15.336;2023-09-08T00:04:09;8.50;;;7.80;;
3841;SDS011;1936;47.074;15.336;2023-09-08T00:06:13;9.20;;;8.30;;
3841;SDS011;1936;47.074;15.336;2023-09-08T00:08:17;8.23;;;7.47;;
3841;SDS011;1936;47.074;15.336;2023-09-08T00:10:21;8.47;;;7.67;;
3841;SDS011;1936;47.074;15.336;2023-09-08T00:12:25;9.17;;;8.27;;
3841;SDS011;1936;47.074;15.336;2023-09-08T00:14:28;8.43;;;7.53;;
3841;SDS011;1936;47.074;15.336;2023-09-08T00:16:32;9.37;;;8.47;;
3841;SDS011;1936;47.074;15.336;2023-09-08T00:18:34;8.67;;;7.83;;
3841;SDS011;1936;47.074;15.336;2023-09-08T00:20:39;8.63;;;7.83;;
3841;SDS011;1936;47.074;15.336;2023-09-08T00:22:44;10.10;;;7.20;;
3841;SDS011;1936;47.074;15.336;2023-09-08T00:24:48;8.57;;;7.73;;
3841;SDS011;1936;47.074;15.336;2023-09-08T00:26:51;8.17;;;7.37;;
3841;SDS011;1936;47.074;15.336;2023-09-08T00:28:54;8.87;;;8.07;;
3841;SDS011;1936;47.074;15.336;2023-09-08T00:30:58;8.43;;;7.53;;
3841;SDS011;1936;47.074;15.336;2023-09-08T00:33:02;9.07;;;8.27;;
3841;SDS011;1936;47.074;15.336;2023-09-08T00:35:11;9.60;;;8.60;;
3841;SDS011;1936;47.074;15.336;2023-09-08T00:37:17;8.30;;;7.50;;
3841;SDS011;1936;47.074;15.336;2023-09-08T00:39:20;8.57;;;7.70;;
3841;SDS011;1936;47.074;15.336;2023-09-08T00:41:24;8.70;;;7.60;;
3841;SDS011;1936;47.074;15.336;2023-09-08T00:43:27;8.77;;;7.90;;
3841;SDS011;1936;47.074;15.336;2023-09-08T00:45:31;9.00;;;7.43;;
3841;SDS011;1936;47.074;15.336;2023-09-08T00:47:39;8.83;;;7.93;;
3841;SDS011;1936;47.074;15.336;2023-09-08T00:49:42;7.87;;;6.90;;
3841;SDS011;1936;47.074;15.336;2023-09-08T00:51:47;10.00;;;7.40;;
3841;SDS011;1936;47.074;15.336;2023-09-08T00:53:52;8.60;;;7.70;;
3841;SDS011;1936;47.074;15.336;2023-09-08T00:55:56;9.33;;;8.27;;
3841;SDS011;1936;47.074;15.336;2023-09-08T00:58:03;11.17;;;7.50;;
3841;SDS011;1936;47.074;15.336;2023-09-08T01:00:08;7.77;;;7.00;;
3841;SDS011;1936;47.074;15.336;2023-09-08T01:02:13;8.93;;;8.03;;
3841;SDS011;1936;47.074;15.336;2023-09-08T01:04:17;10.40;;;8.33;;
3841;SDS011;1936;47.074;15.336;2023-09-08T01:06:23;6.90;;;6.20;;
3841;SDS011;1936;47.074;15.336;2023-09-08T01:08:27;9.50;;;7.10;;
3841;SDS011;1936;47.074;15.336;2023-09-08T01:10:34;8.10;;;7.30;;
3841;SDS011;1936;47.074;15.336;2023-09-08T01:12:38;7.60;;;6.90;;
3841;SDS011;1936;47.074;15.336;2023-09-08T01:14:42;7.13;;;6.43;;
3841;SDS011;1936;47.074;15.336;2023-09-08T01:16:46;7.90;;;7.10;;
3841;SDS011;1936;47.074;15.336;2023-09-08T01:18:50;8.03;;;6.97;;
3841;SDS011;1936;47.074;15.336;2023-09-08T01:23:50;8.40;;;7.60;;
3841;SDS011;1936;47.074;15.336;2023-09-08T01:26:10;8.40;;;6.97;;
3841;SDS011;1936;47.074;15.336;2023-09-08T01:28:16;8.27;;;7.40;;
3841;SDS011;1936;47.074;15.336;2023-09-08T01:30:21;9.87;;;7.67;;
3841;SDS011;1936;47.074;15.336;2023-09-08T01:32:27;10.13;;;7.90;;
3841;SDS011;1936;47.074;15.336;2023-09-08T01:34:32;8.70;;;7.80;;
3841;SDS011;1936;47.074;15.336;2023-09-08T01:36:35;8.53;;;7.70;;
3841;SDS011;1936;47.074;15.336;2023-09-08T01:38:39;7.93;;;7.17;;
3841;SDS011;1936;47.074;15.336;2023-09-08T01:40:42;8.10;;;7.30;;
3841;SDS011;1936;47.074;15.336;2023-09-08T01:42:48;8.63;;;7.63;;
3841;SDS011;1936;47.074;15.336;2023-09-08T01:44:52;10.00;;;7.77;;
3841;SDS011;1936;47.074;15.336;2023-09-08T01:46:54;12.43;;;7.87;;
3841;SDS011;1936;47.074;15.336;2023-09-08T01:48:59;8.30;;;7.50;;
3841;SDS011;1936;47.074;15.336;2023-09-08T01:51:03;11.40;;;7.17;;
3841;SDS011;1936;47.074;15.336;2023-09-08T01:53:07;7.13;;;6.43;;
3841;SDS011;1936;47.074;15.336;2023-09-08T01:55:11;8.77;;;7.87;;
3841;SDS011;1936;47.074;15.336;2023-09-08T01:57:14;9.07;;;6.43;;
3841;SDS011;1936;47.074;15.336;2023-09-08T01:59:19;8.63;;;6.93;;
3841;SDS011;1936;47.074;15.336;2023-09-08T02:01:23;8.17;;;7.37;;
3841;SDS011;1936;47.074;15.336;2023-09-08T02:03:27;8.23;;;7.10;;
3841;SDS011;1936;47.074;15.336;2023-09-08T02:05:31;13.20;;;9.83;;
3841;SDS011;1936;47.074;15.336;2023-09-08T02:07:36;8.60;;;7.73;;
3841;SDS011;1936;47.074;15.336;2023-09-08T02:09:40;9.53;;;7.67;;
3841;SDS011;1936;47.074;15.336;2023-09-08T02:11:43;9.50;;;8.53;;
3841;SDS011;1936;47.074;15.336;2023-09-08T02:13:47;8.00;;;7.20;;
3841;SDS011;1936;47.074;15.336;2023-09-08T02:15:52;10.07;;;9.03;;
3841;SDS011;1936;47.074;15.336;2023-09-08T02:17:56;8.80;;;7.17;;
3841;SDS011;1936;47.074;15.336;2023-09-08T02:20:00;9.67;;;8.70;;
3841;SDS011;1936;47.074;15.336;2023-09-08T02:22:04;10.10;;;9.13;;
3841;SDS011;1936;47.074;15.336;2023-09-08T02:24:08;11.20;;;8.83;;
3841;SDS011;1936;47.074;15.336;2023-09-08T02:26:12;11.00;;;7.37;;
3841;SDS011;1936;47.074;15.336;2023-09-08T02:28:15;8.40;;;7.60;;
3841;SDS011;1936;47.074;15.336;2023-09-08T02:30:19;13.80;;;8.73;;
3841;SDS011;1936;47.074;15.336;2023-09-08T02:32:24;9.03;;;8.07;;
3841;SDS011;1936;47.074;15.336;2023-09-08T02:34:28;9.40;;;8.50;;
3841;SDS011;1936;47.074;15.336;2023-09-08T02:36:31;10.43;;;7.83;;
3841;SDS011;1936;47.074;15.336;2023-09-08T02:38:34;9.93;;;7.30;;
3841;SDS011;1936;47.074;15.336;2023-09-08T02:40:39;18.10;;;8.13;;
3841;SDS011;1936;47.074;15.336;2023-09-08T02:42:43;9.17;;;7.87;;
3841;SDS011;1936;47.074;15.336;2023-09-08T02:44:46;13.80;;;9.90;;
3841;SDS011;1936;47.074;15.336;2023-09-08T02:46:51;12.13;;;7.47;;
3841;SDS011;1936;47.074;15.336;2023-09-08T02:48:56;9.67;;;8.57;;
3841;SDS011;1936;47.074;15.336;2023-09-08T02:51:00;8.93;;;7.73;;
3841;SDS011;1936;47.074;15.336;2023-09-08T02:53:04;10.37;;;8.47;;
3841;SDS011;1936;47.074;15.336;2023-09-08T02:55:07;8.27;;;7.03;;
3841;SDS011;1936;47.074;15.336;2023-09-08T02:57:12;9.60;;;7.70;;
3841;SDS011;1936;47.074;15.336;2023-09-08T02:59:16;13.37;;;7.70;;
3841;SDS011;1936;47.074;15.336;2023-09-08T03:01:20;8.87;;;8.03;;
3841;SDS011;1936;47.074;15.336;2023-09-08T03:03:24;10.00;;;7.03;;
3841;SDS011;1936;47.074;15.336;2023-09-08T03:05:29;11.43;;;8.50;;
3841;SDS011;1936;47.074;15.336;2023-09-08T03:07:34;15.63;;;8.13;;
3841;SDS011;1936;47.074;15.336;2023-09-08T03:09:39;8.70;;;7.87;;
3841;SDS011;1936;47.074;15.336;2023-09-08T03:11:42;10.97;;;7.37;;
3841;SDS011;1936;47.074;15.336;2023-09-08T03:13:47;9.77;;;7.60;;
3841;SDS011;1936;47.074;15.336;2023-09-08T03:15:50;9.80;;;8.33;;
3841;SDS011;1936;47.074;15.336;2023-09-08T03:17:54;9.17;;;8.20;;
3841;SDS011;1936;47.074;15.336;2023-09-08T03:19:58;8.40;;;7.50;;
3841;SDS011;1936;47.074;15.336;2023-09-08T03:22:04;10.13;;;9.10;;
3841;SDS011;1936;47.074;15.336;2023-09-08T03:24:07;9.53;;;8.63;;
3841;SDS011;1936;47.074;15.336;2023-09-08T03:26:11;9.63;;;8.30;;
3841;SDS011;1936;47.074;15.336;2023-09-08T03:28:15;10.77;;;9.67;;
3841;SDS011;1936;47.074;15.336;2023-09-08T03:30:17;9.00;;;8.13;;
3841;SDS011;1936;47.074;15.336;2023-09-08T03:32:21;9.97;;;7.33;;
3841;SDS011;1936;47.074;15.336;2023-09-08T03:34:27;8.43;;;6.70;;
3841;SDS011;1936;47.074;15.336;2023-09-08T03:36:30;6.93;;;6.27;;
3841;SDS011;1936;47.074;15.336;2023-09-08T03:38:38;8.33;;;7.33;;
3841;SDS011;1936;47.074;15.336;2023-09-08T03:40:43;10.80;;;8.90;;
3841;SDS011;1936;47.074;15.336;2023-09-08T03:42:48;13.17;;;7.57;;
3841;SDS011;1936;47.074;15.336;2023-09-08T03:44:51;9.83;;;8.00;;
3841;SDS011;1936;47.074;15.336;2023-09-08T03:46:55;8.23;;;7.47;;
3841;SDS011;1936;47.074;15.336;2023-09-08T03:48:58;9.23;;;7.40;;
3841;SDS011;1936;47.074;15.336;2023-09-08T03:51:03;10.33;;;8.30;;
3841;SDS011;1936;47.074;15.336;2023-09-08T03:53:06;16.47;;;8.00;;
3841;SDS011;1936;47.074;15.336;2023-09-08T03:55:11;12.33;;;8.17;;
3841;SDS011;1936;47.074;15.336;2023-09-08T03:57:15;9.50;;;6.63;;
3841;SDS011;1936;47.074;15.336;2023-09-08T03:59:19;8.93;;;7.80;;
3841;SDS011;1936;47.074;15.336;2023-09-08T04:01:23;8.27;;;7.50;;
3841;SDS011;1936;47.074;15.336;2023-09-08T04:03:27;12.17;;;8.03;;
3841;SDS011;1936;47.074;15.336;2023-09-08T04:05:32;11.87;;;7.67;;
3841;SDS011;1936;47.074;15.336;2023-09-08T04:07:36;13.40;;;7.77;;
3841;SDS011;1936;47.074;15.336;2023-09-08T04:09:40;8.00;;;7.20;;
3841;SDS011;1936;47.074;15.336;2023-09-08T04:11:45;9.20;;;7.60;;
3841;SDS011;1936;47.074;15.336;2023-09-08T04:13:49;9.17;;;6.90;;
3841;SDS011;1936;47.074;15.336;2023-09-08T04:15:53;9.50;;;8.23;;
3841;SDS011;1936;47.074;15.336;2023-09-08T04:17:57;12.50;;;8.13;;
3841;SDS011;1936;47.074;15.336;2023-09-08T04:20:01;10.53;;;7.83;;
3841;SDS011;1936;47.074;15.336;2023-09-08T04:22:04;9.30;;;7.03;;
3841;SDS011;1936;47.074;15.336;2023-09-08T04:24:10;10.40;;;7.97;;
3841;SDS011;1936;47.074;15.336;2023-09-08T04:26:14;9.20;;;6.80;;
3841;SDS011;1936;47.074;15.336;2023-09-08T04:28:19;10.37;;;7.63;;
3841;SDS011;1936;47.074;15.336;2023-09-08T04:30:23;11.30;;;7.90;;
3841;SDS011;1936;47.074;15.336;2023-09-08T04:32:27;10.83;;;6.67;;
3841;SDS011;1936;47.074;15.336;2023-09-08T04:34:31;8.20;;;7.37;;
3841;SDS011;1936;47.074;15.336;2023-09-08T04:36:33;8.70;;;7.33;;
3841;SDS011;1936;47.074;15.336;2023-09-08T04:38:37;10.43;;;8.20;;
3841;SDS011;1936;47.074;15.336;2023-09-08T04:40:40;7.50;;;6.70;;
3841;SDS011;1936;47.074;15.336;2023-09-08T04:42:44;9.20;;;8.00;;
3841;SDS011;1936;47.074;15.336;2023-09-08T04:44:52;9.50;;;8.50;;
3841;SDS011;1936;47.074;15.336;2023-09-08T04:46:55;11.60;;;7.57;;
3841;SDS011;1936;47.074;15.336;2023-09-08T04:49:05;9.70;;;7.87;;
3841;SDS011;1936;47.074;15.336;2023-09-08T04:51:09;9.53;;;8.10;;
3841;SDS011;1936;47.074;15.336;2023-09-08T04:53:14;8.03;;;7.10;;
3841;SDS011;1936;47.074;15.336;2023-09-08T04:55:17;8.50;;;7.70;;
3841;SDS011;1936;47.074;15.336;2023-09-08T04:57:21;8.63;;;7.80;;
3841;SDS011;1936;47.074;15.336;2023-09-08T04:59:25;9.60;;;7.40;;
3841;SDS011;1936;47.074;15.336;2023-09-08T05:01:30;8.20;;;7.43;;
3841;SDS011;1936;47.074;15.336;2023-09-08T05:03:34;8.47;;;7.67;;
3841;SDS011;1936;47.074;15.336;2023-09-08T05:05:38;8.27;;;7.47;;
3841;SDS011;1936;47.074;15.336;2023-09-08T05:07:41;8.13;;;6.67;;
3841;SDS011;1936;47.074;15.336;2023-09-08T05:09:45;9.63;;;7.07;;
3841;SDS011;1936;47.074;15.336;2023-09-08T05:11:49;9.87;;;7.20;;
3841;SDS011;1936;47.074;15.336;2023-09-08T05:13:52;9.63;;;7.70;;
3841;SDS011;1936;47.074;15.336;2023-09-08T05:15:56;14.70;;;7.10;;
3841;SDS011;1936;47.074;15.336;2023-09-08T05:18:04;9.13;;;7.80;;
3841;SDS011;1936;47.074;15.336;2023-09-08T05:20:08;7.90;;;7.10;;
3841;SDS011;1936;47.074;15.336;2023-09-08T05:22:12;9.87;;;7.40;;
3841;SDS011;1936;47.074;15.336;2023-09-08T05:24:16;8.47;;;7.17;;
3841;SDS011;1936;47.074;15.336;2023-09-08T05:26:19;8.50;;;6.93;;
3841;SDS011;1936;47.074;15.336;2023-09-08T05:28:23;8.90;;;6.90;;
3841;SDS011;1936;47.074;15.336;2023-09-08T05:30:27;9.07;;;8.03;;
3841;SDS011;1936;47.074;15.336;2023-09-08T05:32:30;8.50;;;7.67;;
3841;SDS011;1936;47.074;15.336;2023-09-08T05:34:35;9.50;;;7.00;;
3841;SDS011;1936;47.074;15.336;2023-09-08T05:36:40;9.07;;;6.77;;
3841;SDS011;1936;47.074;15.336;2023-09-08T05:38:44;12.20;;;7.17;;
3841;SDS011;1936;47.074;15.336;2023-09-08T05:40:48;14.20;;;7.07;;
3841;SDS011;1936;47.074;15.336;2023-09-08T05:42:52;13.50;;;7.20;;
3841;SDS011;1936;47.074;15.336;2023-09-08T05:44:56;7.17;;;6.47;;
3841;SDS011;1936;47.074;15.336;2023-09-08T05:47:00;12.07;;;6.93;;
3841;SDS011;1936;47.074;15.336;2023-09-08T05:49:04;7.30;;;6.50;;
3841;SDS011;1936;47.074;15.336;2023-09-08T05:51:09;7.20;;;6.50;;
3841;SDS011;1936;47.074;15.336;2023-09-08T05:53:13;9.20;;;7.00;;
3841;SDS011;1936;47.074;15.336;2023-09-08T05:55:20;7.87;;;7.07;;
3841;SDS011;1936;47.074;15.336;2023-09-08T05:57:23;7.97;;;7.17;;
3841;SDS011;1936;47.074;15.336;2023-09-08T05:59:27;7.10;;;6.40;;
3841;SDS011;1936;47.074;15.336;2023-09-08T06:01:31;10.47;;;7.20;;
3841;SDS011;1936;47.074;15.336;2023-09-08T06:03:35;7.63;;;6.73;;
3841;SDS011;1936;47.074;15.336;2023-09-08T06:05:39;8.70;;;6.30;;
3841;SDS011;1936;47.074;15.336;2023-09-08T06:07:43;8.27;;;7.20;;
3841;SDS011;1936;47.074;15.336;2023-09-08T06:10:07;9.20;;;7.47;;
3841;SDS011;1936;47.074;15.336;2023-09-08T06:12:10;8.13;;;7.07;;
3841;SDS011;1936;47.074;15.336;2023-09-08T06:14:13;6.93;;;6.23;;
3841;SDS011;1936;47.074;15.336;2023-09-08T06:16:17;8.00;;;6.20;;
3841;SDS011;1936;47.074;15.336;2023-09-08T06:18:19;8.13;;;7.33;;
3841;SDS011;1936;47.074;15.336;2023-09-08T06:20:23;9.23;;;7.60;;
3841;SDS011;1936;47.074;15.336;2023-09-08T06:22:28;11.07;;;6.27;;
3841;SDS011;1936;47.074;15.336;2023-09-08T06:24:33;6.80;;;6.20;;
3841;SDS011;1936;47.074;15.336;2023-09-08T06:26:37;7.50;;;6.77;;
3841;SDS011;1936;47.074;15.336;2023-09-08T06:28:40;11.57;;;6.77;;
3841;SDS011;1936;47.074;15.336;2023-09-08T06:30:45;7.70;;;7.00;;
3841;SDS011;1936;47.074;15.336;2023-09-08T06:32:51;6.73;;;6.10;;
3841;SDS011;1936;47.074;15.336;2023-09-08T06:34:54;7.43;;;6.73;;
3841;SDS011;1936;47.074;15.336;2023-09-08T06:36:58;9.73;;;6.20;;
3841;SDS011;1936;47.074;15.336;2023-09-08T06:39:01;10.67;;;6.40;;
3841;SDS011;1936;47.074;15.336;2023-09-08T06:41:09;7.70;;;6.90;;
3841;SDS011;1936;47.074;15.336;2023-09-08T06:43:14;6.63;;;5.73;;
3841;SDS011;1936;47.074;15.336;2023-09-08T06:45:18;7.57;;;6.00;;
3841;SDS011;1936;47.074;15.336;2023-09-08T06:47:23;6.80;;;6.20;;
3841;SDS011;1936;47.074;15.336;2023-09-08T06:49:27;6.50;;;5.80;;
3841;SDS011;1936;47.074;15.336;2023-09-08T06:51:31;5.00;;;4.50;;
3841;SDS011;1936;47.074;15.336;2023-09-08T06:53:35;6.47;;;5.70;;
3841;SDS011;1936;47.074;15.336;2023-09-08T06:55:39;5.80;;;5.30;;
3841;SDS011;1936;47.074;15.336;2023-09-08T06:57:47;6.10;;;5.00;;
3841;SDS011;1936;47.074;15.336;2023-09-08T06:59:51;7.60;;;5.70;;
3841;SDS011;1936;47.074;15.336;2023-09-08T07:01:55;6.30;;;5.70;;
3841;SDS011;1936;47.074;15.336;2023-09-08T07:03:59;7.00;;;6.30;;
3841;SDS011;1936;47.074;15.336;2023-09-08T07:06:03;7.10;;;5.07;;
3841;SDS011;1936;47.074;15.336;2023-09-08T07:08:07;5.60;;;5.00;;
3841;SDS011;1936;47.074;15.336;2023-09-08T07:10:12;5.70;;;5.20;;
3841;SDS011;1936;47.074;15.336;2023-09-08T07:12:15;6.17;;;5.53;;
3841;SDS011;1936;47.074;15.336;2023-09-08T07:14:24;5.57;;;4.90;;
3841;SDS011;1936;47.074;15.336;2023-09-08T07:16:28;5.20;;;4.70;;
3841;SDS011;1936;47.074;15.336;2023-09-08T07:18:32;5.97;;;5.37;;
3841;SDS011;1936;47.074;15.336;2023-09-08T07:20:38;6.10;;;5.23;;
3841;SDS011;1936;47.074;15.336;2023-09-08T07:22:43;8.10;;;5.80;;
3841;SDS011;1936;47.074;15.336;2023-09-08T07:24:46;6.07;;;5.30;;
3841;SDS011;1936;47.074;15.336;2023-09-08T07:26:51;6.37;;;4.80;;
3841;SDS011;1936;47.074;15.336;2023-09-08T07:28:54;6.80;;;5.20;;
3841;SDS011;1936;47.074;15.336;2023-09-08T07:31:02;6.47;;;5.37;;
3841;SDS011;1936;47.074;15.336;2023-09-08T07:33:06;5.30;;;4.80;;
3841;SDS011;1936;47.074;15.336;2023-09-08T07:35:10;5.30;;;4.80;;
3841;SDS011;1936;47.074;15.336;2023-09-08T07:37:16;5.13;;;4.63;;
3841;SDS011;1936;47.074;15.336;2023-09-08T07:39:19;4.67;;;4.27;;
3841;SDS011;1936;47.074;15.336;2023-09-08T07:41:23;11.30;;;4.67;;
3841;SDS011;1936;47.074;15.336;2023-09-08T07:43:27;5.40;;;5.00;;
3841;SDS011;1936;47.074;15.336;2023-09-08T07:45:31;5.13;;;4.73;;
3841;SDS011;1936;47.074;15.336;2023-09-08T07:47:36;4.93;;;4.53;;
3841;SDS011;1936;47.074;15.336;2023-09-08T07:49:44;5.30;;;4.90;;
3841;SDS011;1936;47.074;15.336;2023-09-08T07:51:49;5.83;;;4.37;;
3841;SDS011;1936;47.074;15.336;2023-09-08T07:53:53;7.23;;;3.80;;
3841;SDS011;1936;47.074;15.336;2023-09-08T07:55:57;5.00;;;4.60;;
3841;SDS011;1936;47.074;15.336;2023-09-08T07:58:02;5.80;;;4.60;;
3841;SDS011;1936;47.074;15.336;2023-09-08T08:00:07;5.07;;;4.57;;
3841;SDS011;1936;47.074;15.336;2023-09-08T08:02:13;7.17;;;3.70;;
3841;SDS011;1936;47.074;15.336;2023-09-08T08:04:21;6.53;;;4.47;;
3841;SDS011;1936;47.074;15.336;2023-09-08T08:06:25;3.70;;;3.40;;
3841;SDS011;1936;47.074;15.336;2023-09-08T08:08:31;4.27;;;3.97;;
3841;SDS011;1936;47.074;15.336;2023-09-08T08:10:40;5.17;;;4.67;;
3841;SDS011;1936;47.074;15.336;2023-09-08T08:12:44;4.90;;;4.40;;
3841;SDS011;1936;47.074;15.336;2023-09-08T08:14:48;4.33;;;3.90;;
3841;SDS011;1936;47.074;15.336;2023-09-08T08:16:52;10.43;;;4.43;;
3841;SDS011;1936;47.074;15.336;2023-09-08T08:18:55;4.23;;;3.70;;
3841;SDS011;1936;47.074;15.336;2023-09-08T08:21:02;5.20;;;3.80;;
3841;SDS011;1936;47.074;15.336;2023-09-08T08:23:06;4.30;;;3.57;;
3841;SDS011;1936;47.074;15.336;2023-09-08T08:25:11;4.40;;;3.83;;
3841;SDS011;1936;47.074;15.336;2023-09-08T08:27:18;4.23;;;3.83;;
3841;SDS011;1936;47.074;15.336;2023-09-08T08:29:21;4.90;;;3.10;;
3841;SDS011;1936;47.074;15.336;2023-09-08T08:31:25;3.37;;;3.17;;
3841;SDS011;1936;47.074;15.336;2023-09-08T08:33:29;4.13;;;3.50;;
3841;SDS011;1936;47.074;15.336;2023-09-08T08:35:38;3.63;;;3.33;;
3841;SDS011;1936;47.074;15.336;2023-09-08T08:37:43;4.20;;;3.90;;
3841;SDS011;1936;47.074;15.336;2023-09-08T08:39:47;4.17;;;3.60;;
3841;SDS011;1936;47.074;15.336;2023-09-08T08:41:52;4.70;;;4.07;;
3841;SDS011;1936;47.074;15.336;2023-09-08T08:43:55;3.60;;;3.40;;
3841;SDS011;1936;47.074;15.336;2023-09-08T08:46:02;3.83;;;3.53;;
3841;SDS011;1936;47.074;15.336;2023-09-08T08:48:07;4.03;;;3.70;;
3841;SDS011;1936;47.074;15.336;2023-09-08T08:50:10;6.40;;;3.70;;
3841;SDS011;1936;47.074;15.336;2023-09-08T08:52:16;4.23;;;3.80;;
3841;SDS011;1936;47.074;15.336;2023-09-08T08:54:22;5.73;;;3.37;;
3841;SDS011;1936;47.074;15.336;2023-09-08T08:56:27;4.00;;;3.63;;
3841;SDS011;1936;47.074;15.336;2023-09-08T08:58:30;5.23;;;3.57;;
3841;SDS011;1936;47.074;15.336;2023-09-08T09:00:35;4.03;;;3.60;;
3841;SDS011;1936;47.074;15.336;2023-09-08T09:02:40;4.03;;;3.73;;
3841;SDS011;1936;47.074;15.336;2023-09-08T09:04:54;3.30;;;3.00;;
3841;SDS011;1936;47.074;15.336;2023-09-08T09:06:58;6.30;;;3.17;;
3841;SDS011;1936;47.074;15.336;2023-09-08T09:09:02;4.60;;;4.17;;
3841;SDS011;1936;47.074;15.336;2023-09-08T09:11:08;3.17;;;2.87;;
3841;SDS011;1936;47.074;15.336;2023-09-08T09:13:12;4.80;;;3.70;;
3841;SDS011;1936;47.074;15.336;2023-09-08T09:15:15;3.60;;;3.30;;
3841;SDS011;1936;47.074;15.336;2023-09-08T09:17:20;3.67;;;3.37;;
3841;SDS011;1936;47.074;15.336;2023-09-08T09:19:24;4.63;;;3.30;;
3841;SDS011;1936;47.074;15.336;2023-09-08T09:21:40;5.53;;;3.43;;
3841;SDS011;1936;47.074;15.336;2023-09-08T09:23:44;3.30;;;3.10;;
3841;SDS011;1936;47.074;15.336;2023-09-08T09:25:48;3.73;;;3.37;;
3841;SDS011;1936;47.074;15.336;2023-09-08T09:27:54;3.80;;;3.27;;
3841;SDS011;1936;47.074;15.336;2023-09-08T09:29:59;3.83;;;3.23;;
3841;SDS011;1936;47.074;15.336;2023-09-08T09:32:03;2.53;;;2.33;;
3841;SDS011;1936;47.074;15.336;2023-09-08T09:34:09;3.23;;;2.87;;
3841;SDS011;1936;47.074;15.336;2023-09-08T09:36:19;3.03;;;2.83;;
3841;SDS011;1936;47.074;15.336;2023-09-08T09:38:25;2.87;;;2.67;;
3841;SDS011;1936;47.074;15.336;2023-09-08T09:40:29;4.23;;;3.27;;
3841;SDS011;1936;47.074;15.336;2023-09-08T09:42:34;3.00;;;2.80;;
3841;SDS011;1936;47.074;15.336;2023-09-08T09:44:39;3.23;;;3.03;;
3841;SDS011;1936;47.074;15.336;2023-09-08T09:46:44;3.40;;;2.80;;
3841;SDS011;1936;47.074;15.336;2023-09-08T09:48:50;6.43;;;3.53;;
3841;SDS011;1936;47.074;15.336;2023-09-08T09:50:55;3.07;;;2.87;;
3841;SDS011;1936;47.074;15.336;2023-09-08T09:52:59;3.13;;;2.90;;
3841;SDS011;1936;47.074;15.336;2023-09-08T09:55:03;3.00;;;2.63;;
3841;SDS011;1936;47.074;15.336;2023-09-08T09:57:09;3.40;;;2.33;;
3841;SDS011;1936;47.074;15.336;2023-09-08T09:59:14;3.07;;;2.87;;
3841;SDS011;1936;47.074;15.336;2023-09-08T10:01:19;6.43;;;2.90;;
3841;SDS011;1936;47.074;15.336;2023-09-08T10:03:24;2.93;;;2.60;;
3841;SDS011;1936;47.074;15.336;2023-09-08T10:05:29;3.00;;;2.80;;
3841;SDS011;1936;47.074;15.336;2023-09-08T10:07:34;2.17;;;2.03;;
3841;SDS011;1936;47.074;15.336;2023-09-08T10:09:39;4.60;;;2.63;;
3841;SDS011;1936;47.074;15.336;2023-09-08T10:11:44;2.43;;;2.20;;
3841;SDS011;1936;47.074;15.336;2023-09-08T10:13:51;5.83;;;3.00;;
3841;SDS011;1936;47.074;15.336;2023-09-08T10:15:57;3.20;;;2.90;;
3841;SDS011;1936;47.074;15.336;2023-09-08T10:18:04;3.90;;;2.97;;
3841;SDS011;1936;47.074;15.336;2023-09-08T10:20:09;3.03;;;2.83;;
3841;SDS011;1936;47.074;15.336;2023-09-08T10:22:14;2.73;;;2.53;;
3841;SDS011;1936;47.074;15.336;2023-09-08T10:24:22;2.83;;;2.63;;
3841;SDS011;1936;47.074;15.336;2023-09-08T10:26:28;3.00;;;2.70;;
3841;SDS011;1936;47.074;15.336;2023-09-08T10:28:34;2.93;;;2.73;;
3841;SDS011;1936;47.074;15.336;2023-09-08T10:30:39;4.03;;;2.60;;
3841;SDS011;1936;47.074;15.336;2023-09-08T10:32:44;3.13;;;2.80;;
3841;SDS011;1936;47.074;15.336;2023-09-08T10:34:50;3.27;;;2.93;;
3841;SDS011;1936;47.074;15.336;2023-09-08T10:36:55;4.40;;;3.10;;
3841;SDS011;1936;47.074;15.336;2023-09-08T10:41:28;4.60;;;2.63;;
3841;SDS011;1936;47.074;15.336;2023-09-08T10:43:34;3.70;;;3.20;;
3841;SDS011;1936;47.074;15.336;2023-09-08T10:45:39;6.43;;;2.90;;
3841;SDS011;1936;47.074;15.336;2023-09-08T10:47:55;2.67;;;2.47;;
3841;SDS011;1936;47.074;15.336;2023-09-08T10:50:04;2.70;;;2.50;;
3841;SDS011;1936;47.074;15.336;2023-09-08T10:52:09;5.57;;;2.70;;
3841;SDS011;1936;47.074;15.336;2023-09-08T10:54:19;3.27;;;2.30;;
3841;SDS011;1936;47.074;15.336;2023-09-08T10:56:49;4.50;;;2.67;;
3841;SDS011;1936;47.074;15.336;2023-09-08T10:58:58;2.60;;;2.40;;
3841;SDS011;1936;47.074;15.336;2023-09-08T11:01:03;2.23;;;2.10;;
3841;SDS011;1936;47.074;15.336;2023-09-08T11:03:07;2.70;;;2.50;;
3841;SDS011;1936;47.074;15.336;2023-09-08T11:05:12;3.13;;;2.37;;
3841;SDS011;1936;47.074;15.336;2023-09-08T11:07:16;3.23;;;2.33;;
3841;SDS011;1936;47.074;15.336;2023-09-08T11:09:20;3.63;;;2.20;;
3841;SDS011;1936;47.074;15.336;2023-09-08T11:11:25;2.33;;;2.13;;
3841;SDS011;1936;47.074;15.336;2023-09-08T11:13:29;2.67;;;2.20;;
3841;SDS011;1936;47.074;15.336;2023-09-08T11:15:32;2.80;;;2.60;;
3841;SDS011;1936;47.074;15.336;2023-09-08T11:17:36;2.30;;;2.20;;
3841;SDS011;1936;47.074;15.336;2023-09-08T11:19:45;2.70;;;2.50;;
3841;SDS011;1936;47.074;15.336;2023-09-08T11:21:51;3.67;;;2.63;;
3841;SDS011;1936;47.074;15.336;2023-09-08T11:23:55;3.73;;;2.90;;
3841;SDS011;1936;47.074;15.336;2023-09-08T11:25:59;6.27;;;2.80;;
3841;SDS011;1936;47.074;15.336;2023-09-08T11:28:06;2.57;;;2.37;;
3841;SDS011;1936;47.074;15.336;2023-09-08T11:30:10;5.60;;;2.63;;
3841;SDS011;1936;47.074;15.336;2023-09-08T11:32:14;2.93;;;2.27;;
3841;SDS011;1936;47.074;15.336;2023-09-08T11:34:18;3.40;;;2.60;;
3841;SDS011;1936;47.074;15.336;2023-09-08T11:36:24;2.73;;;2.30;;
3841;SDS011;1936;47.074;15.336;2023-09-08T11:38:29;2.80;;;2.60;;
3841;SDS011;1936;47.074;15.336;2023-09-08T11:40:33;2.43;;;2.03;;
3841;SDS011;1936;47.074;15.336;2023-09-08T11:42:38;2.50;;;2.20;;
3841;SDS011;1936;47.074;15.336;2023-09-08T11:44:47;4.93;;;2.60;;
3841;SDS011;1936;47.074;15.336;2023-09-08T11:46:51;4.27;;;2.87;;
3841;SDS011;1936;47.074;15.336;2023-09-08T11:48:56;7.43;;;3.90;;
3841;SDS011;1936;47.074;15.336;2023-09-08T11:51:01;3.60;;;3.30;;
3841;SDS011;1936;47.074;15.336;2023-09-08T11:53:05;3.87;;;3.57;;
3841;SDS011;1936;47.074;15.336;2023-09-08T11:55:12;2.90;;;2.70;;
3841;SDS011;1936;47.074;15.336;2023-09-08T11:57:16;2.80;;;2.40;;
3841;SDS011;1936;47.074;15.336;2023-09-08T11:59:20;2.87;;;2.67;;
3841;SDS011;1936;47.074;15.336;2023-09-08T12:01:23;2.67;;;2.47;;
3841;SDS011;1936;47.074;15.336;2023-09-08T12:03:28;3.00;;;2.80;;
3841;SDS011;1936;47.074;15.336;2023-09-08T12:05:32;5.97;;;3.17;;
3841;SDS011;1936;47.074;15.336;2023-09-08T12:07:37;3.40;;;3.20;;
3841;SDS011;1936;47.074;15.336;2023-09-08T12:09:41;2.77;;;2.57;;
3841;SDS011;1936;47.074;15.336;2023-09-08T12:11:46;5.20;;;2.83;;
3841;SDS011;1936;47.074;15.336;2023-09-08T12:13:50;4.97;;;2.47;;
3841;SDS011;1936;47.074;15.336;2023-09-08T12:16:01;3.90;;;2.63;;
3841;SDS011;1936;47.074;15.336;2023-09-08T12:18:07;3.70;;;3.07;;
3841;SDS011;1936;47.074;15.336;2023-09-08T12:20:13;4.00;;;2.13;;
3841;SDS011;1936;47.074;15.336;2023-09-08T12:22:16;3.20;;;2.90;;
3841;SDS011;1936;47.074;15.336;2023-09-08T12:26:47;6.10;;;2.93;;
3841;SDS011;1936;47.074;15.336;2023-09-08T12:28:50;5.20;;;2.53;;
3841;SDS011;1936;47.074;15.336;2023-09-08T12:30:54;3.50;;;3.17;;
3841;SDS011;1936;47.074;15.336;2023-09-08T12:32:59;5.50;;;2.83;;
3841;SDS011;1936;47.074;15.336;2023-09-08T12:35:04;2.50;;;2.30;;
3841;SDS011;1936;47.074;15.336;2023-09-08T12:37:07;2.90;;;2.60;;
3841;SDS011;1936;47.074;15.336;2023-09-08T12:39:13;3.30;;;2.10;;
3841;SDS011;1936;47.074;15.336;2023-09-08T12:41:17;6.13;;;2.40;;
3841;SDS011;1936;47.074;15.336;2023-09-08T12:43:23;3.10;;;2.80;;
3841;SDS011;1936;47.074;15.336;2023-09-08T12:45:28;3.57;;;3.20;;
3841;SDS011;1936;47.074;15.336;2023-09-08T12:47:32;4.93;;;2.53;;
3841;SDS011;1936;47.074;15.336;2023-09-08T12:49:37;3.50;;;2.50;;
3841;SDS011;1936;47.074;15.336;2023-09-08T12:51:41;3.00;;;2.70;;